• Join FlightAware (Why Join?)
  • Login
  • US Flag 
12:08AM EDT


 

Airport Tracker/Info


-or-


 

Live Flight TrackerFlight Track Log ✈ DAL245 ✈ 28-Apr-2013 ✈ LIRF / FCO - KJFK

Flight Track Log - Related Links

Times and Time Zones

All times are in EDT time to prevent confusion due to time zone crossing. See the DAL245 flight status page for this flight to view local times or setup timezone preferences in your user account.

Time Position Orientation Groundspeed Altitude Reporting Facility
EDT Latitude Longitude Course Direction KTS MPH feet Rate Location/Type
07:00AM 41.8444 12.1040 290° West  Level FlightAware Approximate
07:05AM 41.9309 11.9075 294° West  Level FlightAware Approximate
07:05AM 41.7830 12.2400 294° West 155 178 600  Level FlightAware
07:05AM 41.7640 12.2470 165° South 156 180 1,600 2,220 Climbing FlightAware
07:05AM 41.7530 12.2470 180° South 166 191 2,100 1,560 Climbing FlightAware
07:06AM 41.7440 12.2370 220° Southwest 171 197 2,400 1,200 Climbing FlightAware
07:06AM 41.7420 12.2260 256° West 181 208 2,600 1,020 Climbing FlightAware
07:06AM 41.7460 12.2050 284° West 187 215 3,100 840 Climbing FlightAware
07:07AM 41.7590 12.1780 303° West 196 226 3,400 600 Climbing FlightAware
07:07AM 41.7840 12.1270 303° West 245 282 3,800 720 Climbing FlightAware
07:08AM 41.8080 12.0690 299° West 297 342 4,300 960 Climbing FlightAware
07:08AM 41.8120 12.0320 278° West 315 362 4,600 1,440 Climbing FlightAware
07:09AM 41.8090 11.9810 266° West 327 376 5,400 2,040 Climbing FlightAware
07:09AM 41.8060 11.9220 266° West 335 386 6,500 2,220 Climbing FlightAware
07:09AM 41.8050 11.8900 268° West 339 390 7,100 2,400 Climbing FlightAware
07:10AM 41.8050 11.8360 270° West 341 392 8,100 2,280 Climbing FlightAware
07:10AM 41.8050 11.7720 270° West 346 398 9,200 2,100 Climbing FlightAware
07:11AM 41.8050 11.6850 270° West 353 406 10,600 1,920 Climbing FlightAware
07:12AM 41.8050 11.6020 270° West 359 413 11,800 1,920 Climbing FlightAware
07:12AM 41.8050 11.4970 270° West 364 419 13,400 1,740 Climbing FlightAware
07:13AM 41.8050 11.4080 270° West 375 432 14,300 1,500 Climbing FlightAware
07:14AM 41.8120 11.3400 278° West 384 442 15,200 1,800 Climbing FlightAware
07:14AM 41.8580 11.2580 307° West 397 457 16,400 1,680 Climbing FlightAware
07:15AM 41.9080 11.1750 309° West 392 451 17,600 1,500 Climbing FlightAware
07:16AM 41.9570 11.0960 310° West 404 465 18,600 1,260 Climbing FlightAware
07:16AM 42.0070 11.0130 309° West 410 472 19,300 1,080 Climbing FlightAware
07:17AM 42.0620 10.9220 309° West 420 483 20,200 1,200 Climbing FlightAware
07:18AM 42.1130 10.8400 310° West 429 494 21,000 1,080 Climbing FlightAware
07:18AM 42.1640 10.7550 309° West 436 502 21,700 1,020 Climbing FlightAware
07:19AM 42.2210 10.6600 309° West 438 504 22,500 1,200 Climbing FlightAware
07:20AM 42.2720 10.5750 309° West 438 504 23,400 1,260 Climbing FlightAware
07:21AM 42.3310 10.4770 309° West 440 506 24,300 1,200 Climbing FlightAware
07:21AM 42.3830 10.3900 309° West 440 506 25,100 900 Climbing FlightAware
07:22AM 42.4410 10.2920 309° West 448 516 25,600 720 Climbing FlightAware
07:23AM 42.4940 10.2040 309° West 452 520 26,200 780 Climbing FlightAware
07:23AM 42.5480 10.1130 309° West 461 531 26,700 720 Climbing FlightAware
07:24AM 42.6020 10.0210 309° West 464 534 27,200 720 Climbing FlightAware
07:25AM 42.6620 9.9190 309° West 464 534 27,800 1,020 Climbing FlightAware
07:25AM 42.7150 9.8290 309° West 452 520 28,700 1,200 Climbing FlightAware
07:26AM 42.7740 9.7280 309° West 446 513 29,500 840 Climbing FlightAware
07:27AM 42.8240 9.6410 308° West 449 517 29,900 360 Climbing FlightAware
07:27AM 42.8730 9.5460 305° West 452 520 30,000 240 Climbing FlightAware
07:28AM 42.9140 9.4300 296° West 454 522 30,300 660 Climbing FlightAware
07:29AM 42.9510 9.3260 296° West 452 520 31,000 960 Climbing FlightAware
07:30AM 42.9880 9.2240 296° West 445 512 31,600 840 Climbing FlightAware
07:30AM 43.0290 9.1080 296° West 440 506 32,300 780 Climbing FlightAware
07:31AM 43.0620 9.0120 295° West 434 499 32,800 660 Climbing FlightAware
07:32AM 43.0990 8.9080 296° West 432 497 33,200 660 Climbing FlightAware
07:32AM 43.1380 8.7960 296° West 426 490 33,800 540 Climbing FlightAware
07:33AM 43.1710 8.7000 295° West 427 491 34,000 120 Climbing FlightAware
07:34AM 43.2050 8.6050 296° West 427 491 34,000  Level FlightAware
07:34AM 43.2380 8.5080 295° West 433 498 34,000  Level FlightAware
07:35AM 43.2790 8.3880 295° West 435 501 34,000  Level FlightAware
07:36AM 43.3100 8.2990 296° West 437 503 34,000  Level FlightAware
07:37AM 43.3660 8.1680 300° West 457 526 34,000  Level FlightAware
07:37AM 43.4230 8.0810 312° West 459 528 34,000  Level FlightAware
07:38AM 43.4870 7.9880 314° West 455 524 34,000  Level FlightAware
07:39AM 43.5440 7.9040 313° West 456 525 34,000  Level FlightAware
07:39AM 43.6020 7.8190 313° West 456 525 34,000  Level FlightAware
07:40AM 43.6490 7.7260 305° West 448 516 34,000  Level FlightAware
07:41AM 43.7020 7.6170 304° West 448 516 34,000  Level FlightAware
07:41AM 43.7480 7.5200 303° West 450 518 34,000  Level FlightAware
07:42AM 43.7990 7.4150 304° West 448 516 34,000  Level FlightAware
07:43AM 43.8480 7.3190 305° West 454 522 34,000  Level FlightAware
07:44AM 43.9050 7.2130 307° West 453 521 34,000  Level FlightAware
07:44AM 43.9540 7.1190 306° West 453 521 34,000  Level FlightAware
07:45AM 44.0030 7.0250 306° West 453 521 34,000  Level FlightAware
07:46AM 44.0560 6.9220 306° West 454 522 34,000  Level FlightAware
07:46AM 44.1060 6.8250 306° West 456 525 34,000  Level FlightAware
07:47AM 44.1620 6.7150 305° West 459 528 34,000  Level FlightAware
07:48AM 44.2110 6.6190 305° West 462 532 34,000  Level FlightAware
07:48AM 44.2610 6.5200 305° West 465 535 34,000  Level FlightAware
07:49AM 44.3160 6.4140 306° West 466 536 34,000  Level FlightAware
07:50AM 44.3670 6.3130 305° West 468 539 34,000  Level FlightAware
07:51AM 44.4220 6.2030 305° West 469 540 34,000  Level FlightAware
07:51AM 44.4740 6.1000 305° West 469 540 34,000  Level FlightAware
07:52AM 44.5290 5.9900 305° West 471 542 34,000  Level FlightAware
07:53AM 44.5790 5.8900 305° West 471 542 34,000  Level FlightAware
07:53AM 44.6290 5.7890 305° West 471 542 34,000  Level FlightAware
07:54AM 44.6830 5.6790 305° West 470 541 34,000  Level FlightAware
07:55AM 44.7350 5.5740 305° West 470 541 34,000  Level FlightAware
07:56AM 44.7880 5.4650 304° West 470 541 34,000  Level FlightAware
07:56AM 44.8460 5.3480 305° West 472 543 34,000  Level FlightAware
07:57AM 44.8790 5.2380 293° West 460 529 34,000  Level FlightAware
07:58AM 44.9070 5.1300 290° West 462 532 34,000  Level FlightAware
07:58AM 44.9410 5.0030 291° West 463 533 34,000  Level FlightAware
07:59AM 44.9700 4.8890 290° West 458 527 34,000  Level FlightAware
08:00AM 45.0040 4.7580 290° West 457 526 34,000  Level FlightAware
08:00AM 45.0330 4.6450 290° West 452 520 34,000  Level FlightAware
08:01AM 45.0610 4.5360 290° West 451 519 34,000  Level FlightAware
08:02AM 45.0920 4.4130 290° West 449 517 34,000  Level FlightAware
08:02AM 45.1170 4.3130 290° West 447 514 34,000  Level FlightAware
08:03AM 45.1470 4.1930 290° West 447 514 34,000  Level FlightAware
08:04AM 45.1730 4.0800 288° West 445 512 34,000  Level FlightAware
08:05AM 45.2020 3.9550 288° West 443 510 34,000  Level FlightAware
08:05AM 45.2300 3.8350 288° West 444 511 34,000  Level FlightAware
08:06AM 45.2550 3.7230 288° West 444 511 34,000  Level FlightAware
08:07AM 45.2840 3.6000 289° West 444 511 34,000  Level FlightAware
08:07AM 45.3080 3.4940 288° West 443 510 34,000  Level FlightAware
08:08AM 45.3350 3.3740 288° West 441 507 34,000  Level FlightAware
08:09AM 45.3620 3.2520 288° West 440 506 34,000  Level FlightAware
08:10AM 45.3880 3.1400 288° West 440 506 34,000  Level FlightAware
08:10AM 45.4120 3.0310 287° West 441 507 34,000  Level FlightAware
08:11AM 45.4400 2.9020 287° West 442 509 34,000  Level FlightAware
08:12AM 45.4640 2.7910 287° West 444 511 34,000  Level FlightAware
08:12AM 45.4900 2.6700 287° West 446 513 34,000  Level FlightAware
08:13AM 45.5130 2.5610 287° West 447 514 34,000  Level FlightAware
08:14AM 45.5370 2.4510 287° West 448 516 34,000  Level FlightAware
08:14AM 45.5650 2.3160 287° West 447 514 34,000  Level FlightAware
08:15AM 45.5890 2.2000 287° West 446 513 34,000  Level FlightAware
08:16AM 45.6160 2.0710 287° West 448 516 34,000  Level FlightAware
08:17AM 45.6380 1.9640 286° West 448 516 34,000  Level FlightAware
08:17AM 45.6610 1.8510 286° West 450 518 34,000  Level FlightAware
08:18AM 45.6880 1.7200 286° West 450 518 34,000  Level FlightAware
08:19AM 45.7110 1.6070 286° West 450 518 34,000  Level FlightAware
08:19AM 45.7370 1.4820 287° West 450 518 34,000  Level FlightAware
08:20AM 45.7560 1.3860 286° West 451 519 34,000  Level FlightAware
08:21AM 45.7760 1.2890 287° West 451 519 34,000  Level FlightAware
08:21AM 45.8000 1.1660 286° West 451 519 34,000  Level FlightAware
08:22AM 45.8200 1.0690 287° West 451 519 34,000  Level FlightAware
08:23AM 45.8390 0.9710 286° West 451 519 34,000  Level FlightAware
08:23AM 45.8690 0.7680 282° West 466 536 34,000  Level FlightAware
08:24AM 45.8940 0.6160 283° West 470 541 34,000  Level FlightAware
08:25AM 45.9170 0.4590 282° West 467 537 34,000  Level FlightAware
08:26AM 45.9360 0.3290 282° West 466 536 34,000  Level FlightAware
08:27AM 45.9540 0.2010 281° West 466 536 34,000  Level FlightAware
08:27AM 45.9710 0.0770 281° West 469 540 34,000  Level FlightAware
08:28AM 45.9900 -0.0580 281° West 471 542 34,000  Level FlightAware
08:29AM 46.0120 -0.1760 285° West 480 552 34,000  Level FlightAware
08:29AM 46.0470 -0.3090 291° West 475 547 34,000  Level FlightAware
08:30AM 46.0800 -0.4330 291° West 476 548 34,000  Level FlightAware
08:31AM 46.1110 -0.5270 295° West 482 555 34,000  Level FlightAware
08:31AM 46.1550 -0.5980 312° West 485 558 34,000  Level FlightAware
08:32AM 46.2240 -0.7020 314° West 487 560 34,000  Level FlightAware
08:32AM 46.2850 -0.7960 313° West 486 559 34,000  Level FlightAware
08:33AM 46.3420 -0.9170 304° West 483 556 34,000  Level FlightAware
08:34AM 46.3890 -1.0290 301° West 483 556 34,000  Level FlightAware
08:35AM 46.4400 -1.1490 302° West 482 555 34,000  Level FlightAware
08:35AM 46.4870 -1.2600 302° West 483 556 34,000  Level FlightAware
08:36AM 46.5340 -1.3720 301° West 478 550 34,000  Level FlightAware
08:37AM 46.5870 -1.5000 301° West 481 554 34,000  Level FlightAware
08:37AM 46.6340 -1.6120 301° West 485 558 34,000  Level FlightAware
08:38AM 46.6840 -1.7320 301° West 485 558 34,000  Level FlightAware
08:39AM 46.7310 -1.8450 301° West 486 559 34,000  Level FlightAware
08:39AM 46.7770 -1.9570 301° West 488 562 34,000  Level FlightAware
08:40AM 46.8310 -2.0880 301° West 491 565 34,000  Level FlightAware
08:41AM 46.8750 -2.1980 300° West 490 564 34,000  Level FlightAware
08:42AM 46.9270 -2.3260 301° West 487 560 34,000  Level FlightAware
08:42AM 46.9740 -2.4400 301° West 486 559 34,000  Level FlightAware
08:43AM 47.0260 -2.5700 300° West 484 557 34,000  Level FlightAware
08:44AM 47.0710 -2.6820 301° West 484 557 34,000  Level FlightAware
08:44AM 47.1160 -2.7950 300° West 484 557 34,000  Level FlightAware
08:45AM 47.1660 -2.9210 300° West 485 558 34,000  Level FlightAware
08:46AM 47.2060 -3.0210 301° West 482 555 34,000  Level FlightAware
08:46AM 47.2560 -3.1470 300° West 478 550 34,000  Level FlightAware
08:47AM 47.3060 -3.2760 300° West 476 548 34,000  Level FlightAware
08:48AM 47.3550 -3.4010 300° West 477 549 34,000  Level FlightAware
08:49AM 47.3990 -3.5140 300° West 477 549 34,000  Level FlightAware
08:49AM 47.4430 -3.6260 300° West 476 548 34,000  Level FlightAware
08:50AM 47.4860 -3.7400 299° West 473 544 34,000  Level FlightAware
08:51AM 47.5290 -3.8510 300° West 473 544 34,000  Level FlightAware
08:51AM 47.5770 -3.9780 299° West 472 543 34,000  Level FlightAware
08:52AM 47.6270 -4.1070 300° West 472 543 34,000  Level FlightAware
08:53AM 47.6700 -4.2210 299° West 470 541 34,000  Level FlightAware
08:54AM 47.7150 -4.3420 299° West 468 539 34,000  Level FlightAware
08:54AM 47.7580 -4.4540 300° West 465 535 34,000  Level FlightAware
08:55AM 47.8000 -4.5670 299° West 464 534 34,000  Level FlightAware
08:56AM 47.8470 -4.6940 299° West 463 533 34,000  Level FlightAware
08:56AM 47.8880 -4.8050 299° West 463 533 34,000  Level FlightAware
08:57AM 47.9300 -4.9170 299° West 464 534 34,000  Level FlightAware
08:58AM 47.9760 -5.0420 299° West 463 533 34,000  Level FlightAware
08:58AM 48.0150 -5.1510 298° West 463 533 34,000  Level FlightAware
08:59AM 48.0620 -5.2780 299° West 466 536 34,000  Level FlightAware
09:00AM 48.1040 -5.3950 298° West 468 539 34,000  Level FlightAware
09:01AM 48.1500 -5.5240 298° West 468 539 34,000 -720 Level FlightAware
09:01AM 48.1932 -5.6426 298° West 474 545 33,000 -420 Descending FlightAware UK
09:02AM 48.2116 -5.6938 298° West 476 548 33,600 1,620 Climbing FlightAware UK
09:02AM 48.2294 -5.7435 298° West 472 543 34,000 960 Climbing FlightAware UK
09:02AM 48.2471 -5.7931 298° West 466 536 34,200 120 Climbing FlightAware UK
09:02AM 48.2644 -5.8414 298° West 470 541 34,100 120 Descending FlightAware UK
09:03AM 48.2819 -5.8905 298° West 468 539 34,300 480 Climbing FlightAware UK
09:03AM 48.2995 -5.9398 298° West 468 539 34,400  Climbing FlightAware UK
09:03AM 48.3170 -5.9890 298° West 470 541 34,300  Descending FlightAware UK
09:04AM 48.3343 -6.0385 298° West 470 541 34,400 120 Climbing FlightAware UK
09:04AM 48.3518 -6.0885 298° West 472 543 34,400  Level FlightAware UK
09:04AM 48.3695 -6.1387 298° West 474 545 34,400  Level FlightAware UK
09:05AM 48.3871 -6.1888 298° West 470 541 34,400  Level FlightAware UK
09:05AM 48.4046 -6.2390 298° West 470 541 34,400 3,540 Level FlightAware UK
09:05AM 48.4080 -6.2500 298° West 450 518 36,000  Climbing FlightAware
09:05AM 48.4281 -6.3056 298° West 468 539 34,400 -2,940 Descending FlightAware UK
09:06AM 48.4456 -6.3556 298° West 468 539 34,400 3,840 Level FlightAware UK
09:06AM 48.4480 -6.3630 298° West 450 518 36,000  Climbing FlightAware
09:06AM 48.4686 -6.4222 298° West 468 539 34,400 -2,760 Descending FlightAware UK
09:06AM 48.4859 -6.4723 298° West 468 539 34,400 4,140 Level FlightAware UK
09:06AM 48.4870 -6.4750 298° West 451 519 36,000  Climbing FlightAware
09:07AM 48.5090 -6.5391 298° West 466 536 34,400 -2,640 Descending FlightAware UK
09:07AM 48.5265 -6.5892 298° West 470 541 34,400 3,660 Level FlightAware UK
09:07AM 48.5300 -6.6000 298° West 454 522 36,000  Climbing FlightAware
09:07AM 48.5496 -6.6563 298° West 468 539 34,400 -2,880 Descending FlightAware UK
09:08AM 48.5669 -6.7068 297° West 470 541 34,400 3,960 Level FlightAware UK
09:08AM 48.5710 -6.7190 297° West 454 522 36,000  Climbing FlightAware
09:08AM 48.5902 -6.7743 297° West 470 541 34,400 -2,700 Descending FlightAware UK
09:08AM 48.6075 -6.8251 297° West 470 541 34,400 3,540 Level FlightAware UK
09:08AM 48.6140 -6.8430 297° West 453 521 36,000  Climbing FlightAware
09:09AM 48.6306 -6.8928 297° West 470 541 34,400 -2,940 Descending FlightAware UK
09:09AM 48.6476 -6.9430 297° West 472 543 34,400 3,840 Level FlightAware UK
09:09AM 48.6500 -6.9510 297° West 453 521 36,000  Climbing FlightAware
09:09AM 48.6706 -7.0107 297° West 470 541 34,400 -2,760 Descending FlightAware UK
09:10AM 48.6878 -7.0613 297° West 470 541 34,400  Level FlightAware UK
09:10AM 48.7048 -7.1120 297° West 470 541 34,400 4,800 Level FlightAware UK
09:10AM 48.7050 -7.1160 297° West 452 520 36,000  Climbing FlightAware
09:10AM 48.7135 -7.1670 297° West 470 541 34,400 -2,880 Descending FlightAware UK
09:11AM 48.7168 -7.2244 275° West 470 541 34,400 3,960 Level FlightAware UK
09:11AM 48.7170 -7.2380 275° West 461 531 36,000  Climbing FlightAware
09:11AM 48.7196 -7.3022 275° West 468 539 34,400 -2,700 Descending FlightAware UK
09:11AM 48.7240 -7.3597 277° West 466 536 34,400 3,540 Level FlightAware UK
09:11AM 48.7260 -7.3740 277° West 457 526 36,000  Climbing FlightAware
09:12AM 48.7299 -7.4357 277° West 466 536 34,400 -2,940 Descending FlightAware UK
09:12AM 48.7341 -7.4929 276° West 466 536 34,400 3,840 Level FlightAware UK
09:12AM 48.7340 -7.4960 276° West 459 528 36,000  Climbing FlightAware
09:12AM 48.7394 -7.5696 276° West 470 541 34,400 -2,760 Descending FlightAware UK
09:13AM 48.7434 -7.6272 276° West 470 541 34,400 3,420 Level FlightAware UK
09:13AM 48.7450 -7.6510 276° West 458 527 36,000  Climbing FlightAware
09:13AM 48.7500 -7.7230 276° West 464 534 34,400 -2,580 Descending FlightAware UK
09:14AM 48.7538 -7.7803 276° West 466 536 34,400 3,840 Level FlightAware UK
09:14AM 48.7550 -7.7980 276° West 458 527 36,000  Climbing FlightAware
09:14AM 48.7588 -7.8569 276° West 464 534 34,400 -2,760 Descending FlightAware UK
09:14AM 48.7625 -7.9143 276° West 464 534 34,400 4,140 Level FlightAware UK
09:14AM 48.7630 -7.9240 276° West 459 528 36,000  Climbing FlightAware
09:15AM 48.7673 -7.9910 276° West 462 532 34,400  Descending FlightAware UK
09:15AM 48.7720 -8.0650 276° West 464 534 36,000  Climbing FlightAware
09:15AM 48.7756 -8.1252 276° West 464 534 34,400 -2,880 Descending FlightAware UK
09:16AM 48.7792 -8.1835 275° West 464 534 34,400 3,960 Level FlightAware UK
09:16AM 48.7800 -8.1940 275° West 468 539 36,000  Climbing FlightAware
09:16AM 48.7841 -8.2615 275° West 468 539 34,400  Descending FlightAware UK
09:16AM 48.7870 -8.3060 275° West 469 540 36,000  Climbing FlightAware
09:16AM 48.7878 -8.3204 275° West 466 536 34,400 -5,100 Descending FlightAware UK
09:17AM 48.7913 -8.3795 275° West 468 539 34,400  Level FlightAware UK
09:17AM 48.7948 -8.4388 275° West 470 541 34,400 3,060 Level FlightAware UK
09:17AM 48.7970 -8.4760 275° West 469 540 36,000  Climbing FlightAware
09:17AM 48.8007 -8.5378 275° West 468 539 34,400 -2,760 Descending FlightAware UK
09:18AM 48.8042 -8.5970 275° West 468 539 34,400 4,140 Level FlightAware UK
09:18AM 48.8040 -8.5970 275° West 468 539 36,000  Climbing FlightAware
09:18AM 48.8088 -8.6758 275° West 470 541 34,400  Descending FlightAware UK
09:18AM 48.8100 -8.7050 275° West 468 539 36,000  Climbing FlightAware
09:18AM 48.8123 -8.7346 275° West 470 541 34,400 -4,800 Descending FlightAware UK
09:19AM 48.8158 -8.7935 275° West 468 539 34,400  Level FlightAware UK
09:19AM 48.8191 -8.8523 275° West 466 536 34,400 3,840 Level FlightAware UK
09:19AM 48.8180 -8.8600 275° West 467 537 36,000  Climbing FlightAware
09:19AM 48.8235 -8.9305 275° West 466 536 34,400 -2,760 Descending FlightAware UK
09:20AM 48.8268 -8.9891 275° West 464 534 34,400 4,140 Level FlightAware UK
09:20AM 48.8240 -8.9710 275° West 467 537 36,000 1,920 Climbing FlightAware
09:21AM 48.8180 -8.8600 95° East 467 537 36,000  Level FlightAware
09:21AM 48.8240 -8.9710 275° West 467 537 36,000  Level FlightAware
09:22AM 48.8290 -9.0830 274° West 467 537 36,000  Level FlightAware
09:23AM 48.8350 -9.2220 274° West 467 537 36,000  Level FlightAware
09:23AM 48.8400 -9.3330 274° West 467 537 36,000  Level FlightAware
09:24AM 48.8450 -9.4450 274° West 467 537 36,000  Level FlightAware
09:25AM 48.8500 -9.5560 274° West 467 537 36,000  Level FlightAware
09:25AM 48.8150 -8.7880 94° East 36,000  Level FlightAware
09:28AM 48.8824 -9.1674 285° West  Level Estimated
09:29AM 48.9136 -9.3457 285° West  Level Estimated
09:30AM 48.9445 -9.5241 285° West  Level Estimated
09:31AM 48.9751 -9.7028 285° West  Level Estimated
09:32AM 49.0054 -9.8816 285° West  Level Estimated
09:33AM 49.0355 -10.0608 284° West  Level Estimated
09:34AM 49.0652 -10.2401 284° West  Level Estimated
09:35AM 49.0947 -10.4196 284° West  Level Estimated
09:36AM 49.1240 -10.5993 284° West  Level Estimated
09:37AM 49.1529 -10.7793 284° West  Level Estimated
09:38AM 49.1816 -10.9594 284° West  Level Estimated
09:39AM 49.2100 -11.1398 284° West  Level Estimated
09:40AM 49.2381 -11.3204 283° West  Level Estimated
09:41AM 49.2659 -11.5012 283° West  Level Estimated
09:42AM 49.2934 -11.6821 283° West  Level Estimated
09:43AM 49.3207 -11.8633 283° West  Level Estimated
09:44AM 49.3476 -12.0447 283° West  Level Estimated
09:45AM 49.3743 -12.2263 283° West  Level Estimated
09:46AM 49.4007 -12.4081 283° West  Level Estimated
09:47AM 49.4269 -12.5900 283° West  Level Estimated
09:48AM 49.4527 -12.7722 282° West  Level Estimated
09:49AM 49.4782 -12.9545 282° West  Level Estimated
09:50AM 49.5035 -13.1371 282° West  Level Estimated
09:51AM 49.5285 -13.3198 282° West  Level Estimated
09:52AM 49.5532 -13.5027 282° West  Level Estimated
09:53AM 49.5775 -13.6858 282° West  Level Estimated
09:54AM 49.6017 -13.8695 282° West  Level Estimated
09:55AM 49.6256 -14.0533 281° West  Level Estimated
09:56AM 49.6491 -14.2373 281° West  Level Estimated
09:57AM 49.6724 -14.4215 281° West  Level Estimated
09:58AM 49.6954 -14.6058 281° West  Level Estimated
09:59AM 49.7181 -14.7903 281° West  Level Estimated
10:00AM 49.7405 -14.9750 281° West  Level Estimated
10:01AM 49.7626 -15.1599 281° West  Level Estimated
10:02AM 49.7844 -15.3450 280° West  Level Estimated
10:03AM 49.8059 -15.5302 280° West  Level Estimated
10:04AM 49.8271 -15.7155 280° West  Level Estimated
10:05AM 49.8481 -15.9011 280° West  Level Estimated
10:06AM 49.8687 -16.0868 280° West  Level Estimated
10:07AM 49.8890 -16.2726 280° West  Level Estimated
10:08AM 49.9091 -16.4586 280° West  Level Estimated
10:09AM 49.9291 -16.6478 279° West  Level Estimated
10:10AM 49.9489 -16.8371 279° West  Level Estimated
10:11AM 49.9683 -17.0266 279° West  Level Estimated
10:12AM 49.9875 -17.2163 279° West  Level Estimated
10:13AM 50.0063 -17.4061 279° West  Level Estimated
10:14AM 50.0248 -17.5960 279° West  Level Estimated
10:15AM 50.0430 -17.7861 279° West  Level Estimated
10:16AM 50.0609 -17.9764 278° West  Level Estimated
10:17AM 50.0785 -18.1667 278° West  Level Estimated
10:18AM 50.0957 -18.3573 278° West  Level Estimated
10:19AM 50.1127 -18.5479 278° West  Level Estimated
10:20AM 50.1293 -18.7387 278° West  Level Estimated
10:20AM 49.0000 -20.0000 274° West 445 512 36,000  Level ETMS Enhanced Traffic Management System
10:21AM 50.1457 -18.9296 278° West  Level Estimated
10:22AM 50.1617 -19.1207 278° West  Level Estimated
10:23AM 50.1774 -19.3119 277° West  Level Estimated
10:24AM 50.1928 -19.5032 277° West  Level Estimated
10:25AM 50.2079 -19.6946 277° West  Level Estimated
10:26AM 49.0495 -21.3183 273° West 445 512 36,000  Level FlightAware Transoceanic
10:27AM 49.0554 -21.5068 273° West 445 512 36,000  Level FlightAware Transoceanic
10:28AM 49.0609 -21.6954 272° West 445 512 36,000  Level FlightAware Transoceanic
10:29AM 49.0662 -21.8840 272° West 445 512 36,000  Level FlightAware Transoceanic
10:30AM 49.0711 -22.0727 272° West 445 512 36,000  Level FlightAware Transoceanic
10:31AM 49.0757 -22.2614 272° West 445 512 36,000  Level FlightAware Transoceanic
10:32AM 49.0800 -22.4501 272° West 445 512 36,000  Level FlightAware Transoceanic
10:33AM 49.0840 -22.6388 272° West 445 512 36,000  Level FlightAware Transoceanic
10:34AM 49.0877 -22.8276 272° West 445 512 36,000  Level FlightAware Transoceanic
10:35AM 49.0911 -23.0164 271° West 445 512 36,000  Level FlightAware Transoceanic
10:36AM 49.0942 -23.2053 271° West 445 512 36,000  Level FlightAware Transoceanic
10:37AM 49.0970 -23.3941 271° West 445 512 36,000  Level FlightAware Transoceanic
10:38AM 49.0995 -23.5830 271° West 445 512 36,000  Level FlightAware Transoceanic
10:39AM 49.1016 -23.7719 271° West 445 512 36,000  Level FlightAware Transoceanic
10:40AM 49.1035 -23.9608 271° West 445 512 36,000  Level FlightAware Transoceanic
10:41AM 49.1050 -24.1497 271° West 445 512 36,000  Level FlightAware Transoceanic
10:42AM 49.1062 -24.3387 270° West 445 512 36,000  Level FlightAware Transoceanic
10:43AM 49.1072 -24.5276 270° West 445 512 36,000  Level FlightAware Transoceanic
10:44AM 49.1078 -24.7166 270° West 445 512 36,000  Level FlightAware Transoceanic
10:45AM 49.1081 -24.9055 270° West 445 512 36,000  Level FlightAware Transoceanic
10:46AM 49.1081 -25.0945 270° West 445 512 36,000  Level FlightAware Transoceanic
10:47AM 49.1078 -25.2834 270° West 445 512 36,000  Level FlightAware Transoceanic
10:48AM 49.1072 -25.4724 270° West 445 512 36,000  Level FlightAware Transoceanic
10:49AM 49.1062 -25.6613 270° West 445 512 36,000  Level FlightAware Transoceanic
10:50AM 49.1050 -25.8503 269° West 445 512 36,000  Level FlightAware Transoceanic
10:51AM 49.1035 -26.0392 269° West 445 512 36,000  Level FlightAware Transoceanic
10:52AM 49.1016 -26.2281 269° West 445 512 36,000  Level FlightAware Transoceanic
10:53AM 49.0995 -26.4170 269° West 445 512 36,000  Level FlightAware Transoceanic
10:54AM 49.0970 -26.6059 269° West 445 512 36,000  Level FlightAware Transoceanic
10:55AM 49.0942 -26.7947 269° West 445 512 36,000  Level FlightAware Transoceanic
10:56AM 49.0911 -26.9836 269° West 445 512 36,000  Level FlightAware Transoceanic
10:57AM 49.0877 -27.1724 268° West 445 512 36,000  Level FlightAware Transoceanic
10:58AM 49.0840 -27.3612 268° West 445 512 36,000  Level FlightAware Transoceanic
10:59AM 49.0800 -27.5499 268° West 445 512 36,000  Level FlightAware Transoceanic
11:00AM 49.0757 -27.7386 268° West 445 512 36,000  Level FlightAware Transoceanic
11:01AM 49.0711 -27.9273 268° West 445 512 36,000  Level FlightAware Transoceanic
11:02AM 49.0662 -28.1160 268° West 445 512 36,000  Level FlightAware Transoceanic
11:03AM 49.0609 -28.3046 268° West 445 512 36,000  Level FlightAware Transoceanic
11:04AM 49.0554 -28.4932 267° West 445 512 36,000  Level FlightAware Transoceanic
11:05AM 49.0495 -28.6817 267° West 445 512 36,000  Level FlightAware Transoceanic
11:06AM 49.0434 -28.8702 267° West 445 512 36,000  Level FlightAware Transoceanic
11:07AM 49.0369 -29.0586 267° West 445 512 36,000  Level FlightAware Transoceanic
11:08AM 49.0302 -29.2470 267° West 445 512 36,000  Level FlightAware Transoceanic
11:09AM 49.0231 -29.4353 267° West 445 512 36,000  Level FlightAware Transoceanic
11:10AM 49.0157 -29.6236 267° West 445 512 36,000  Level FlightAware Transoceanic
11:11AM 49.0080 -29.8118 266° West 445 512 36,000  Level FlightAware Transoceanic
11:12AM 49.0000 -29.9996 266° West  Level FlightAware Approximate
11:13AM 48.9894 -30.1871 265° West  Level FlightAware Approximate
11:14AM 48.9895 -30.1867 265° West  Level FlightAware Approximate
11:15AM 48.9787 -30.3741 265° West  Level FlightAware Approximate
11:16AM 48.9676 -30.5614 265° West  Level FlightAware Approximate
11:17AM 48.9562 -30.7487 265° West  Level FlightAware Approximate
11:18AM 48.9445 -30.9358 265° West  Level FlightAware Approximate
11:19AM 48.9324 -31.1229 264° West  Level FlightAware Approximate
11:20AM 48.9201 -31.3098 264° West  Level FlightAware Approximate
11:21AM 48.9075 -31.4967 264° West  Level FlightAware Approximate
11:22AM 48.8946 -31.6835 264° West  Level FlightAware Approximate
11:23AM 48.8813 -31.8701 264° West  Level FlightAware Approximate
11:24AM 48.8678 -32.0567 264° West  Level FlightAware Approximate
11:25AM 48.8540 -32.2432 264° West  Level FlightAware Approximate
11:26AM 48.8399 -32.4295 263° West  Level FlightAware Approximate
11:27AM 48.8254 -32.6158 263° West  Level FlightAware Approximate
11:28AM 48.8107 -32.8019 263° West  Level FlightAware Approximate
11:29AM 48.7957 -32.9880 263° West  Level FlightAware Approximate
11:30AM 48.7803 -33.1739 263° West  Level FlightAware Approximate
11:31AM 48.7647 -33.3597 263° West  Level FlightAware Approximate
11:32AM 48.7488 -33.5454 263° West  Level FlightAware Approximate
11:33AM 48.7325 -33.7310 263° West  Level FlightAware Approximate
11:34AM 48.7160 -33.9165 262° West  Level FlightAware Approximate
11:35AM 48.6992 -34.1018 262° West  Level FlightAware Approximate
11:36AM 48.6821 -34.2870 262° West  Level FlightAware Approximate
11:37AM 48.6647 -34.4721 262° West  Level FlightAware Approximate
11:38AM 48.6470 -34.6571 262° West  Level FlightAware Approximate
11:39AM 48.6289 -34.8419 262° West  Level FlightAware Approximate
11:40AM 48.6106 -35.0266 262° West  Level FlightAware Approximate
11:41AM 48.5920 -35.2111 261° West  Level FlightAware Approximate
11:42AM 48.5732 -35.3956 261° West  Level FlightAware Approximate
11:43AM 48.5540 -35.5798 261° West  Level FlightAware Approximate
11:44AM 48.5345 -35.7640 261° West  Level FlightAware Approximate
11:45AM 48.5147 -35.9480 261° West  Level FlightAware Approximate
11:46AM 48.4947 -36.1318 261° West  Level FlightAware Approximate
11:47AM 48.4743 -36.3155 261° West  Level FlightAware Approximate
11:48AM 48.4536 -36.4991 260° West  Level FlightAware Approximate
11:49AM 48.4327 -36.6825 260° West  Level FlightAware Approximate
11:50AM 48.4115 -36.8658 260° West  Level FlightAware Approximate
11:51AM 48.3899 -37.0489 260° West  Level FlightAware Approximate
11:52AM 48.3681 -37.2318 260° West  Level FlightAware Approximate
11:53AM 48.3460 -37.4146 260° West  Level FlightAware Approximate
11:54AM 48.3236 -37.5972 260° West  Level FlightAware Approximate
11:55AM 48.3010 -37.7797 259° West  Level FlightAware Approximate
11:56AM 48.2780 -37.9620 259° West  Level FlightAware Approximate
11:57AM 48.2547 -38.1441 259° West  Level FlightAware Approximate
11:58AM 48.2312 -38.3261 259° West  Level FlightAware Approximate
11:59AM 48.2074 -38.5079 259° West  Level FlightAware Approximate
12:00PM 48.1832 -38.6895 259° West  Level FlightAware Approximate
12:01PM 48.1588 -38.8710 259° West  Level FlightAware Approximate
12:02PM 48.1341 -39.0523 259° West  Level FlightAware Approximate
12:03PM 48.1091 -39.2334 258° West  Level FlightAware Approximate
12:04PM 48.0839 -39.4143 258° West  Level FlightAware Approximate
12:05PM 48.0583 -39.5951 258° West  Level FlightAware Approximate
12:06PM 48.0325 -39.7757 258° West  Level FlightAware Approximate
12:07PM 48.0064 -39.9561 258° West  Level FlightAware Approximate
12:08PM 47.9794 -40.1361 257° West  Level FlightAware Approximate
12:09PM 47.9520 -40.3159 257° West  Level FlightAware Approximate
12:10PM 47.9243 -40.4954 257° West  Level FlightAware Approximate
12:11PM 47.8967 -40.6721 257° West  Level FlightAware Approximate
12:12PM 47.8688 -40.8486 257° West  Level FlightAware Approximate
12:13PM 47.8407 -41.0249 257° West  Level FlightAware Approximate
12:14PM 47.8123 -41.2011 257° West  Level FlightAware Approximate
12:15PM 47.7837 -41.3770 256° West  Level FlightAware Approximate
12:16PM 47.7547 -41.5527 256° West  Level FlightAware Approximate
12:17PM 47.7256 -41.7283 256° West  Level FlightAware Approximate
12:18PM 47.6961 -41.9036 256° West  Level FlightAware Approximate
12:19PM 47.6664 -42.0788 256° West  Level FlightAware Approximate
12:20PM 47.6364 -42.2537 256° West  Level FlightAware Approximate
12:21PM 47.6061 -42.4284 256° West  Level FlightAware Approximate
12:22PM 47.5756 -42.6030 256° West  Level FlightAware Approximate
12:23PM 47.5448 -42.7773 255° West  Level FlightAware Approximate
12:24PM 47.5137 -42.9514 255° West  Level FlightAware Approximate
12:25PM 47.4824 -43.1253 255° West  Level FlightAware Approximate
12:26PM 47.4508 -43.2990 255° West  Level FlightAware Approximate
12:27PM 47.4190 -43.4725 255° West  Level FlightAware Approximate
12:28PM 47.3869 -43.6458 255° West  Level FlightAware Approximate
12:29PM 47.3545 -43.8189 255° West  Level FlightAware Approximate
12:30PM 47.3219 -43.9918 255° West  Level FlightAware Approximate
12:31PM 47.2890 -44.1644 254° West  Level FlightAware Approximate
12:32PM 47.2559 -44.3369 254° West  Level FlightAware Approximate
12:33PM 47.2225 -44.5091 254° West  Level FlightAware Approximate
12:34PM 47.1888 -44.6811 254° West  Level FlightAware Approximate
12:35PM 47.1549 -44.8529 254° West  Level FlightAware Approximate
12:36PM 47.1208 -45.0244 254° West  Level FlightAware Approximate
12:37PM 47.0863 -45.1958 254° West  Level FlightAware Approximate
12:38PM 47.0516 -45.3669 253° West  Level FlightAware Approximate
12:39PM 47.0167 -45.5378 253° West  Level FlightAware Approximate
12:40PM 46.9815 -45.7085 253° West  Level FlightAware Approximate
12:41PM 46.9461 -45.8789 253° West  Level FlightAware Approximate
12:42PM 46.9104 -46.0491 253° West  Level FlightAware Approximate
12:43PM 46.8744 -46.2191 253° West  Level FlightAware Approximate
12:44PM 46.8382 -46.3889 253° West  Level FlightAware Approximate
12:45PM 46.8018 -46.5584 253° West  Level FlightAware Approximate
12:46PM 46.7651 -46.7277 252° West  Level FlightAware Approximate
12:47PM 46.7281 -46.8968 252° West  Level FlightAware Approximate
12:48PM 46.6909 -47.0656 252° West  Level FlightAware Approximate
12:49PM 46.6535 -47.2342 252° West  Level FlightAware Approximate
12:50PM 46.6158 -47.4026 252° West  Level FlightAware Approximate
12:51PM 46.5778 -47.5707 252° West  Level FlightAware Approximate
12:52PM 46.5396 -47.7386 252° West  Level FlightAware Approximate
12:53PM 46.5012 -47.9063 252° West  Level FlightAware Approximate
12:54PM 46.4625 -48.0737 252° West  Level FlightAware Approximate
12:55PM 46.4236 -48.2409 251° West  Level FlightAware Approximate
12:56PM 46.3845 -48.4079 251° West  Level FlightAware Approximate
12:57PM 46.3451 -48.5746 251° West  Level FlightAware Approximate
12:58PM 46.3054 -48.7411 251° West  Level FlightAware Approximate
12:59PM 46.2655 -48.9073 251° West  Level FlightAware Approximate
01:00PM 46.2254 -49.0733 251° West  Level FlightAware Approximate
01:01PM 46.1850 -49.2390 251° West  Level FlightAware Approximate
01:02PM 46.1444 -49.4045 251° West  Level FlightAware Approximate
01:03PM 46.1035 -49.5698 250° West  Level FlightAware Approximate
01:04PM 46.0625 -49.7348 250° West  Level FlightAware Approximate
01:05PM 46.0211 -49.8995 250° West  Level FlightAware Approximate
01:05PM 45.9667 -50.0167 256° West 470 541 36,000  Level Gander Center
01:06PM 45.9891 -50.0674 257° West  Level FlightAware Approximate
01:06PM 45.9333 -50.2000 255° West 460 529 36,000  Level Gander Center
01:07PM 45.9610 -50.2392 257° West  Level FlightAware Approximate
01:07PM 45.9167 -50.3667 262° West 470 541 36,000  Level Gander Center
01:08PM 45.9327 -50.4109 257° West  Level FlightAware Approximate
01:08PM 45.8833 -50.5667 257° West 470 541 36,000  Level Gander Center
01:09PM 45.9041 -50.5823 257° West  Level FlightAware Approximate
01:09PM 45.8667 -50.7500 263° West 470 541 36,000  Level Gander Center
01:10PM 45.8753 -50.7536 256° West  Level FlightAware Approximate
01:10PM 45.8500 -50.9333 263° West 460 529 36,000  Level Gander Center
01:11PM 45.8333 -51.1167 263° West 460 529 36,000  Level Gander Center
01:11PM 45.8333 -51.2000 270° West 460 529 36,000  Level Moncton Center
01:12PM 45.8000 -51.3833 255° West 470 541 36,000  Level Moncton Center
01:13PM 45.7833 -51.5500 262° West 460 529 36,000  Level Moncton Center
01:14PM 45.7833 -51.6500 270° West 460 529 36,000 420 Level Gander Center
01:15PM 45.7667 -51.8500 263° West 460 529 36,700 660 Climbing Gander Center
01:15PM 45.7500 -51.9167 250° West 460 529 37,000 660 Climbing Moncton Center
01:16PM 45.7333 -52.1167 263° West 460 529 37,700 480 Climbing Moncton Center
01:17PM 45.7167 -52.2833 262° West 460 529 38,000 120 Climbing Gander Center
01:18PM 45.7000 -52.4500 262° West 460 529 38,000  Level Gander Center
01:23PM 45.6090 -53.4750 262° West 453 521 38,000  Level FlightAware
01:24PM 45.5960 -53.5820 260° West 454 522 38,000  Level FlightAware
01:25PM 45.5820 -53.6970 260° West 454 522 38,000  Level FlightAware
01:26PM 45.5670 -53.8230 260° West 454 522 38,000  Level FlightAware
01:26PM 45.5500 -53.9650 260° West 452 520 38,000  Level FlightAware
01:27PM 45.5350 -54.0930 261° West 451 519 38,000  Level FlightAware
01:28PM 45.5190 -54.2260 260° West 450 518 38,000  Level FlightAware
01:28PM 45.5040 -54.3440 260° West 450 518 38,000  Level FlightAware
01:29PM 45.4900 -54.4550 260° West 450 518 38,000  Level FlightAware
01:30PM 45.4790 -54.5290 258° West 450 518 38,000  Level FlightAware
01:30PM 45.4640 -54.6630 261° West 450 518 38,000  Level FlightAware
01:31PM 45.4480 -54.7790 259° West 450 518 38,000  Level FlightAware
01:32PM 45.4350 -54.8780 259° West 450 518 38,000  Level FlightAware
01:32PM 45.4210 -54.9770 259° West 450 518 38,000  Level FlightAware
01:33PM 45.4080 -55.0760 259° West 450 518 38,000  Level FlightAware
01:34PM 45.3910 -55.2000 259° West 450 518 38,000  Level FlightAware
01:34PM 45.3770 -55.2990 259° West 450 518 38,000  Level FlightAware
01:35PM 45.3640 -55.3980 259° West 450 518 38,000  Level FlightAware
01:36PM 45.3500 -55.4970 259° West 450 518 38,000  Level FlightAware
01:36PM 45.3370 -55.5960 259° West 450 518 38,000  Level FlightAware
01:37PM 45.3200 -55.7190 259° West 450 518 38,000  Level FlightAware
01:38PM 45.3060 -55.8180 259° West 450 518 38,000  Level FlightAware
01:39PM 45.2930 -55.9170 259° West 450 518 38,000  Level FlightAware
01:39PM 45.2790 -56.0150 259° West 450 518 38,000  Level FlightAware
01:40PM 45.2660 -56.1140 259° West 450 518 38,000  Level FlightAware
01:46PM 45.0840 -57.3720 259° West 447 514 38,000  Level FlightAware
01:47PM 45.0670 -57.4890 258° West 447 514 38,000  Level FlightAware
01:47PM 45.0590 -57.5380 257° West 447 514 38,000  Level FlightAware
01:48PM 45.0360 -57.6780 257° West 444 511 38,000  Level FlightAware
01:48PM 45.0210 -57.7740 258° West 444 511 38,000  Level FlightAware
01:49PM 45.0010 -57.8950 257° West 444 511 38,000  Level FlightAware
01:50PM 44.9850 -57.9910 257° West 444 511 38,000  Level FlightAware
01:51PM 44.9700 -58.0870 258° West 444 511 38,000  Level FlightAware
01:51PM 44.9540 -58.1830 257° West 444 511 38,000  Level FlightAware
01:52PM 44.9210 -58.4050 258° West 441 507 38,000  Level FlightAware
01:53PM 44.9020 -58.5190 257° West 441 507 38,000  Level FlightAware
01:53PM 44.8870 -58.6150 258° West 441 507 38,000  Level FlightAware
01:54PM 44.8710 -58.7100 257° West 441 507 38,000  Level FlightAware
01:55PM 44.8470 -58.8540 257° West 445 512 38,000  Level FlightAware
01:55PM 44.8330 -58.9390 257° West 444 511 38,000  Level FlightAware
01:56PM 44.8150 -59.0410 256° West 445 512 38,000  Level FlightAware
01:56PM 44.7950 -59.1580 256° West 445 512 38,000  Level FlightAware
01:57PM 44.7750 -59.2750 256° West 445 512 38,000  Level FlightAware
01:58PM 44.7560 -59.3910 257° West 446 513 38,000  Level FlightAware
01:59PM 44.7340 -59.5170 256° West 448 516 38,000  Level FlightAware
01:59PM 44.7140 -59.6280 256° West 449 517 38,000  Level FlightAware
02:00PM 44.6940 -59.7460 257° West 452 520 38,000  Level FlightAware
02:01PM 44.6710 -59.8730 256° West 454 522 38,000  Level FlightAware
02:01PM 44.6510 -59.9870 256° West 453 521 38,000  Level FlightAware
02:02PM 44.6170 -60.1750 256° West 453 521 38,000  Level FlightAware
02:03PM 44.5960 -60.2890 256° West 453 521 38,000  Level FlightAware
02:04PM 44.5780 -60.3850 255° West 453 521 38,000  Level FlightAware
02:04PM 44.5590 -60.4820 255° West 453 521 38,000  Level FlightAware
02:05PM 44.5360 -60.6030 255° West 453 521 38,000  Level FlightAware
02:06PM 44.5180 -60.6990 255° West 453 521 38,000  Level FlightAware
02:07PM 44.4990 -60.7960 255° West 453 521 38,000  Level FlightAware
02:07PM 44.4810 -60.8920 255° West 453 521 38,000  Level FlightAware
02:08PM 44.4620 -60.9890 255° West 453 521 38,000  Level FlightAware
02:09PM 44.4390 -61.1090 255° West 453 521 38,000  Level FlightAware
02:09PM 44.4210 -61.2050 255° West 453 521 38,000  Level FlightAware
02:10PM 44.4020 -61.3020 255° West 453 521 38,000  Level FlightAware
02:11PM 44.3840 -61.3980 255° West 453 521 38,000  Level FlightAware
02:11PM 44.3650 -61.4940 255° West 453 521 38,000  Level FlightAware
02:12PM 44.3420 -61.6150 255° West 453 521 38,000  Level FlightAware
02:13PM 44.2833 -61.8833 255° West 460 529 38,000  Level Gander Center
02:13PM 44.2667 -61.9667 254° West 460 529 38,000  Level Moncton Center
02:14PM 44.2333 -62.1333 254° West 460 529 38,000  Level Moncton Center
02:15PM 44.1833 -62.3167 249° West 460 529 38,000  Level Moncton Center
02:16PM 44.1500 -62.4833 254° West 460 529 38,000  Level Moncton Center
02:17PM 44.1167 -62.6500 254° West 460 529 38,000  Level Moncton Center
02:18PM 44.1000 -62.8333 263° West 460 529 38,000  Level Moncton Center
02:19PM 44.0500 -63.0000 247° West 460 529 38,000  Level Moncton Center
02:20PM 44.0167 -63.1667 255° West 460 529 38,000  Level Moncton Center
02:21PM 43.9833 -63.3333 255° West 460 529 38,000  Level Moncton Center
02:22PM 43.9500 -63.4333 245° Southwest 460 529 38,000  Level Gander Center
02:23PM 43.9167 -63.6000 255° West 460 529 38,000  Level Gander Center
02:23PM 43.9000 -63.6833 255° West 460 529 38,000  Level Moncton Center
02:24PM 43.8667 -63.8333 253° West 460 529 38,000  Level Moncton Center
02:30PM 43.6740 -64.8080 253° West 465 535 38,000  Level FlightAware
02:31PM 43.6290 -65.0080 253° West 467 537 38,000  Level FlightAware
02:32PM 43.5720 -65.2510 252° West 472 543 38,000  Level FlightAware
02:33PM 43.5300 -65.4330 252° West 470 541 38,000  Level FlightAware
02:34PM 43.4790 -65.6500 252° West 469 540 38,000  Level FlightAware
02:36PM 43.4360 -65.8320 252° West 463 533 38,000  Level FlightAware
02:37PM 43.3790 -66.0700 252° West 462 532 38,000  Level FlightAware
02:38PM 43.3320 -66.2650 252° West 469 540 38,000  Level FlightAware
02:39PM 43.2830 -66.4650 251° West 471 542 38,000  Level FlightAware
02:41PM 43.2310 -66.6740 251° West 463 533 38,000  Level FlightAware
02:42PM 43.1920 -66.8320 251° West 460 529 38,000  Level FlightAware
02:42PM 43.1630 -66.9490 251° West 460 529 38,000  Level FlightAware
02:43PM 43.1240 -67.0860 249° West 457 526 38,000  Level FlightAware
02:44PM 43.0880 -67.2010 247° West 457 526 38,000  Level FlightAware
02:45PM 43.0530 -67.3150 247° West 457 526 38,000  Level FlightAware
02:46PM 42.9890 -67.5290 248° West 38,000  Level FlightAware
02:46PM 42.9630 -67.6130 247° West 465 535 38,000  Level FlightAware
02:47PM 42.9250 -67.7350 247° West 464 534 38,000  Level FlightAware
02:48PM 42.8730 -67.9030 247° West 466 536 38,000  Level FlightAware
02:49PM 42.8380 -68.0130 247° West 464 534 38,000  Level FlightAware
02:50PM 42.8050 -68.1170 247° West 464 534 38,000  Level FlightAware
02:50PM 42.7770 -68.2090 248° West 464 534 38,000  Level FlightAware
02:51PM 42.7480 -68.3000 247° West 464 534 38,000  Level FlightAware
02:54PM 42.5960 -68.7700 246° West 444 511 38,000  Level FlightAware
02:55PM 42.5150 -69.0200 246° West 441 507 38,000  Level FlightAware
02:58PM 42.3970 -69.3780 246° West 439 505 38,000  Level FlightAware
03:03PM 42.1250 -70.1900 246° West 436 502 38,000  Level FlightAware
03:04PM 42.0920 -70.2880 246° West 435 501 38,000  Level FlightAware
03:05PM 42.0520 -70.4040 245° Southwest 435 501 38,000  Level FlightAware
03:05PM 42.0260 -70.4810 246° West 435 501 38,000  Level FlightAware
03:06PM 41.9850 -70.6150 248° West 433 498 38,000  Level FlightAware
03:07PM 41.9550 -70.7090 247° West 433 498 38,000  Level FlightAware
03:07PM 41.9240 -70.8080 247° West 433 498 38,000  Level FlightAware
03:08PM 41.8860 -70.9270 247° West 433 498 38,000  Level FlightAware
03:09PM 41.8560 -71.0210 247° West 434 499 38,000 -360 Level FlightAware
03:09PM 41.7990 -71.1240 233° Southwest 444 511 37,500 -900 Descending FlightAware
03:10PM 41.7450 -71.2080 229° Southwest 451 519 36,800 -1,920 Descending FlightAware
03:11PM 41.6940 -71.2870 229° Southwest 461 531 35,000 -2,580 Descending FlightAware
03:12PM 41.6290 -71.3880 229° Southwest 453 521 33,200 -2,580 Descending FlightAware
03:12PM 41.5740 -71.4730 229° Southwest 457 526 31,400 -2,400 Descending FlightAware
03:13PM 41.5120 -71.5700 230° Southwest 451 519 29,800 -2,220 Descending FlightAware
03:14PM 41.4620 -71.6460 229° Southwest 455 524 28,500 -2,100 Descending FlightAware
03:14PM 41.4020 -71.7380 229° Southwest 448 516 27,000 -2,280 Descending FlightAware
03:15PM 41.3560 -71.8090 229° Southwest 445 512 25,500 -2,220 Descending FlightAware
03:16PM 41.2940 -71.9020 228° Southwest 434 499 24,100 -900 Descending FlightAware
03:17PM 41.2170 -71.9890 220° Southwest 414 476 24,000 -720 Descending FlightAware
03:18PM 41.1860 -72.0230 220° Southwest 401 461 22,800 -1,620 Descending FlightAware
03:18PM 41.1620 -72.0500 220° Southwest 401 461 21,200 -3,900 Descending FlightAware
03:19PM 41.2060 -72.0360 13° North 373 429 18,300 -2,700 Descending FlightAware
03:19PM 41.1890 -72.1110 253° West 373 429 18,300  Level FlightAware
03:20PM 41.1720 -72.1850 253° West 373 429 18,300  Level FlightAware
03:21PM 41.1500 -72.2780 253° West 373 429 18,300 -3,960 Level FlightAware
03:22PM 40.9840 -72.5830 234° Southwest 343 395 12,400 -4,680 Descending FlightAware
03:22PM 40.9580 -72.6670 248° West 326 375 11,700 -540 Descending FlightAware
03:23PM 40.9170 -72.7210 225° Southwest 291 335 11,700  Level FlightAware
03:24PM 40.8780 -72.7750 226° Southwest 298 343 11,700 -240 Level FlightAware
03:24PM 40.8320 -72.8360 225° Southwest 297 342 11,400 -900 Descending FlightAware
03:25PM 40.7940 -72.8860 225° Southwest 294 338 10,500 -1,320 Descending FlightAware
03:26PM 40.7650 -72.9240 225° Southwest 285 328 9,900 -1,200 Descending FlightAware
03:26PM 40.7510 -72.9440 227° Southwest 284 327 9,600 -1,200 Descending FlightAware
03:26PM 40.7280 -72.9750 226° Southwest 280 322 9,100 -1,320 Descending FlightAware
03:27PM 40.7000 -73.0130 226° Southwest 280 322 8,400 -1,200 Descending FlightAware
03:27PM 40.6780 -73.0420 225° Southwest 281 323 8,000 -1,140 Descending FlightAware
03:28PM 40.6530 -73.0790 228° Southwest 276 318 7,400 -1,200 Descending FlightAware
03:28PM 40.6480 -73.1030 255° West 271 312 7,100 -1,380 Descending FlightAware
03:28PM 40.6540 -73.1410 282° West 266 306 6,500 -1,440 Descending FlightAware
03:29PM 40.6630 -73.1840 285° West 266 306 5,900 -1,200 Descending FlightAware
03:29PM 40.6750 -73.2390 286° West 261 300 5,300 -960 Descending FlightAware
03:29PM 40.6780 -73.2550 284° West 259 298 5,200 -600 Descending FlightAware
03:30PM 40.6890 -73.2980 289° West 242 278 4,900 -540 Descending FlightAware
03:30PM 40.6990 -73.3400 287° West 226 260 4,700 -240 Descending FlightAware
03:31PM 40.7060 -73.3720 286° West 219 252 4,700 -300 Level FlightAware
03:31PM 40.7110 -73.3910 289° West 219 252 4,500 -1,080 Descending FlightAware
03:32PM 40.7190 -73.4230 288° West 221 254 4,000 -1,200 Descending FlightAware
03:32PM 40.7260 -73.4430 295° West 222 255 3,700 -420 Descending FlightAware
03:32PM 40.7460 -73.4740 310° West 222 255 3,700 -120 Level FlightAware
03:33PM 40.7640 -73.5030 309° West 213 245 3,600 -180 Descending FlightAware
03:33PM 40.7700 -73.5130 308° West 202 232 3,600 -600 Level FlightAware
03:33PM 40.7870 -73.5400 310° West 189 217 3,200 -1,140 Descending FlightAware
03:34PM 40.8030 -73.5680 307° West 188 216 2,500 -1,380 Descending FlightAware
03:34PM 40.8030 -73.5750 270° West 185 213 2,400 -960 Descending FlightAware
03:34PM 40.7960 -73.5930 243° Southwest 173 199 2,100 -840 Descending FlightAware
03:35PM 40.7790 -73.6140 223° Southwest 168 193 1,700 -480 Descending FlightAware
03:35PM 40.7620 -73.6300 215° Southwest 167 192 1,700  Level FlightAware
03:36PM 40.7440 -73.6490 219° Southwest 166 191 1,700  Level FlightAware
03:36PM 40.7300 -73.6650 221° Southwest 166 191 1,700 -240 Level FlightAware
03:37PM 40.7130 -73.6830 219° Southwest 161 185 1,500 -720 Descending FlightAware
03:37PM 40.6950 -73.7030 220° Southwest 152 175 1,000 -900 Descending FlightAware
03:37PM 40.6900 -73.7090 222° Southwest 144 166 900 -720 Descending FlightAware
03:38PM 40.6830 -73.7190 227° Southwest 136 157 700 -720 Descending FlightAware
03:38PM 40.6700 -73.7360 225° Southwest 132 152 400 -600 Descending FlightAware
03:39PM 40.6570 -73.7460 210° Southwest 133 153 -960 Descending FlightAware
03:39PM 40.6410 -73.7580 210° Southwest 131 151  Level FlightAware